Terminal Aerodrome Forecast
Issued by NWS

Current Version | Previous Version | Text Only | Print | Product List | Glossary On
Versions: 1 2 3 4 5 6 7 8 9 10 11 12 13 14 15 16 17 18 19
000
FTUS43 KTOP 241700
TAFFOE
TAF
KFOE 241724Z 2418/2518 34014G20KT P6SM BKN080
     FM250100 28006KT P6SM SKC
     FM251500 22014G20KT P6SM SKC=

USA.gov is the U.S. government's official web portal to all federal, state and local government web resources and services.